Methoni, Greece
Current Conditions -  °F | °C
As of 8:20 PM on Thursday 30 Oct 2014 (Local Time) from LGKL Reporting Station
Few Clouds Few Clouds  
Wind Chill: 57°   Ceiling: Unl
Heat Index: 57°   Visibility: 6mi
Dew Point: 50°   Wind: 0mph
Humidity: 77%   Direction: NA
Pressure: 30.03"   Gusts: NA
Location:  36.82°N, 21.7°E
Report Text: LGKL 301720Z 00000KT 9999 FEW020 14/10 Q1017
Loading
Personal Weather Stations






























Interactive Weather Map
Tropical Storm Tracking
New forecast layout! Learn more

10-Day Weather Forecast

Advertisements
Track Severe Weather on mobile